Time;durP1;ratioP1;P1;durP2;ratioP2;P2;SDS_P1;SDS_P2;PMS_P1;PMS_P2;Temp;Humidity;BMP_temperature;BMP_pressure;BME280_temperature;BME280_humidity;BME280_pressure;Samples;Min_cycle;Max_cycle;Signal;HPM_P1;HPM_P2
2023/04/15 00:01:22;;;;;;;10.00;6.30;;;;;;;10.76;94.00;99308.03;105269;1258;69108;-67
2023/04/15 00:04:37;;;;;;;;;;;;;;;;;;;;;
2023/04/15 00:07:55;;;;;;;9.60;6.90;;;;;;;10.68;94.30;99308.86;105418;1254;82626;-73
2023/04/15 00:11:23;;;;;;;10.00;6.80;;;;;;;10.62;94.41;99311.09;105372;1254;73729;-69
2023/04/15 00:14:34;;;;;;;12.10;8.10;;;;;;;10.57;94.57;99302.98;105410;1257;69131;-70
2023/04/15 00:18:01;;;;;;;11.30;6.70;;;;;;;10.51;94.81;99305.26;105429;1256;69215;-69
2023/04/15 00:21:13;;;;;;;11.10;6.70;;;;;;;10.45;95.09;99302.06;105423;1255;74121;-69
2023/04/15 00:24:18;;;;;;;;;;;;;;;;;;;;;
2023/04/15 00:27:52;;;;;;;11.60;6.70;;;;;;;10.35;95.33;99300.48;105283;1257;72238;-70
2023/04/15 00:31:05;;;;;;;7.90;6.50;;;;;;;10.30;95.74;99300.75;105382;1254;69125;-71
2023/04/15 00:34:17;;;;;;;9.50;6.70;;;;;;;10.28;96.06;99299.48;105405;1254;69203;-72
2023/04/15 00:37:42;;;;;;;;;;;;;;;;;;;;;
2023/04/15 00:40:57;;;;;;;9.90;6.40;;;;;;;10.23;96.42;99299.73;105407;1255;82917;-74
2023/04/15 00:44:14;;;;;;;11.00;6.80;;;;;;;10.21;96.69;99302.77;105430;1256;72674;-75
2023/04/15 00:47:55;;;;;;;11.00;6.90;;;;;;;10.19;96.84;99304.45;105485;1253;69135;-72
2023/04/15 00:51:32;;;;;;;;;;;;;;;;;;;;;
2023/04/15 00:54:57;;;;;;;;;;;;;;;;;;;;;
2023/04/15 00:58:37;;;;;;;;;;;;;;;;;;;;;
2023/04/15 01:02:27;;;;;;;11.50;7.90;;;;;;;10.04;97.52;99303.65;105221;1257;74157;-80
2023/04/15 01:06:03;;;;;;;;;;;;;;;;;;;;;
2023/04/15 01:13:25;;;;;;;9.50;6.90;;;;;;;9.94;97.89;99306.63;105185;1259;74156;-75
2023/04/15 01:16:58;;;;;;;;;;;;;;;;;;;;;
2023/04/15 01:20:27;;;;;;;12.50;8.80;;;;;;;9.88;98.10;99312.88;105513;1253;73636;-74
2023/04/15 01:23:59;;;;;;;12.80;8.00;;;;;;;9.83;98.13;99305.44;105234;1254;69169;-76
2023/04/15 01:27:26;;;;;;;10.60;7.40;;;;;;;9.81;98.26;99303.30;105444;1257;69219;-75
2023/04/15 01:30:56;;;;;;;11.60;7.90;;;;;;;9.78;98.32;99305.69;105343;1253;74131;-76
2023/04/15 01:34:22;;;;;;;;;;;;;;;;;;;;;
2023/04/15 01:37:42;;;;;;;;;;;;;;;;;;;;;
2023/04/15 01:41:03;;;;;;;12.00;8.20;;;;;;;9.74;98.74;99301.95;105369;1257;69200;-73
2023/04/15 01:44:46;;;;;;;12.10;8.00;;;;;;;9.70;98.87;99307.16;105448;1253;69077;-76
2023/04/15 01:48:27;;;;;;;11.00;8.00;;;;;;;9.71;98.95;99304.36;101382;1257;5401022;-78
2023/04/15 01:51:49;;;;;;;;;;;;;;;;;;;;;
2023/04/15 01:55:20;;;;;;;10.20;7.90;;;;;;;9.68;99.07;99302.20;105276;1259;73804;-75
2023/04/15 01:58:47;;;;;;;;;;;;;;;;;;;;;
2023/04/15 02:02:19;;;;;;;11.50;7.50;;;;;;;9.64;99.34;99297.73;105146;1253;69133;-73
2023/04/15 02:06:01;;;;;;;11.70;7.70;;;;;;;9.65;99.49;99292.64;105758;1253;74092;-76
2023/04/15 02:09:37;;;;;;;;;;;;;;;;;;;;;
2023/04/15 02:13:02;;;;;;;12.10;8.00;;;;;;;9.63;99.43;99291.66;105396;1254;73349;-75
2023/04/15 02:16:41;;;;;;;10.30;7.20;;;;;;;9.58;99.32;99294.84;105166;1258;69315;-78
2023/04/15 02:19:52;;;;;;;11.60;7.90;;;;;;;9.58;99.74;99295.02;105254;1257;69160;-75
2023/04/15 02:23:10;;;;;;;;;;;;;;;;;;;;;
2023/04/15 02:26:54;;;;;;;12.80;8.50;;;;;;;9.56;99.51;99293.39;105322;1253;83397;-74
2023/04/15 02:30:19;;;;;;;11.90;7.50;;;;;;;9.51;99.45;99292.09;105271;1255;72719;-81
2023/04/15 02:33:55;;;;;;;13.00;8.00;;;;;;;9.49;99.79;99293.04;105267;1253;69212;-76
2023/04/15 02:37:26;;;;;;;;;;;;;;;;;;;;;
2023/04/15 02:40:56;;;;;;;12.20;8.30;;;;;;;9.51;99.96;99291.56;105393;1253;73793;-77
2023/04/15 02:44:26;;;;;;;;;;;;;;;;;;;;;
2023/04/15 02:48:06;;;;;;;9.50;8.10;;;;;;;9.51;99.96;99297.52;105264;1253;74140;-78
2023/04/15 02:51:49;;;;;;;;;;;;;;;;;;;;;
2023/04/15 02:55:03;;;;;;;11.70;7.90;;;;;;;9.49;100.00;99302.51;104976;1263;69271;-76
2023/04/15 02:58:55;;;;;;;10.60;8.50;;;;;;;9.51;100.00;99302.03;104999;1262;74099;-78
2023/04/15 03:06:18;;;;;;;11.20;8.10;;;;;;;9.47;100.00;99306.39;104946;1257;73493;-74
2023/04/15 03:09:40;;;;;;;10.70;8.50;;;;;;;9.47;100.00;99312.67;104904;1260;69183;-77
2023/04/15 03:13:02;;;;;;;;;;;;;;;;;;;;;
2023/04/15 03:16:32;;;;;;;12.60;8.60;;;;;;;9.49;100.00;99296.19;105056;1257;73827;-78
2023/04/15 03:19:58;;;;;;;12.00;8.10;;;;;;;9.49;100.00;99299.54;105228;1262;82815;-73
2023/04/15 03:23:25;;;;;;;13.40;8.40;;;;;;;9.48;100.00;99303.23;105002;1260;73429;-74
2023/04/15 03:26:54;;;;;;;12.70;8.20;;;;;;;9.49;100.00;99305.80;105127;1253;69342;-73
2023/04/15 03:30:37;;;;;;;;;;;;;;;;;;;;;
2023/04/15 03:34:14;;;;;;;13.60;8.30;;;;;;;9.45;100.00;99302.52;105322;1259;74143;-76
2023/04/15 03:37:48;;;;;;;;;;;;;;;;;;;;;
2023/04/15 03:41:11;;;;;;;11.50;8.10;;;;;;;9.46;100.00;99309.59;105251;1257;73963;-72
2023/04/15 03:44:55;;;;;;;10.80;8.40;;;;;;;9.47;100.00;99310.60;105230;1255;69188;-74
2023/04/15 03:48:28;;;;;;;12.60;8.40;;;;;;;9.46;100.00;99318.83;105308;1253;69154;-76
2023/04/15 03:52:00;;;;;;;;;;;;;;;;;;;;;
2023/04/15 03:55:40;;;;;;;;;;;;;;;;;;;;;
2023/04/15 03:59:17;;;;;;;;;;;;;;;;;;;;;
2023/04/15 04:02:55;;;;;;;11.60;8.50;;;;;;;9.52;100.00;99334.95;105254;1256;69204;-72
2023/04/15 04:06:08;;;;;;;;;;;;;;;;;;;;;
2023/04/15 04:09:24;;;;;;;13.00;8.20;;;;;;;9.50;100.00;99338.33;105299;1253;73012;-73
2023/04/15 04:13:06;;;;;;;;;;;;;;;;;;;;;
2023/04/15 04:16:47;;;;;;;12.10;7.90;;;;;;;9.50;100.00;99340.79;105248;1253;73103;-71
2023/04/15 04:20:10;;;;;;;;;;;;;;;;;;;;;
2023/04/15 04:23:49;;;;;;;13.00;8.90;;;;;;;9.51;100.00;99350.33;105218;1257;69127;-71
2023/04/15 04:27:19;;;;;;;;;;;;;;;;;;;;;
2023/04/15 04:30:53;;;;;;;13.80;9.10;;;;;;;9.51;100.00;99354.35;105253;1253;82681;-73
2023/04/15 04:34:17;;;;;;;11.20;8.30;;;;;;;9.49;100.00;99352.88;105232;1253;72665;-73
2023/04/15 04:37:46;;;;;;;;;;;;;;;;;;;;;
2023/04/15 04:41:16;;;;;;;;;;;;;;;9.51;100.00;99358.71;105229;1258;69160;-73
2023/04/15 04:45:06;;;;;;;12.60;8.30;;;;;;;9.54;100.00;99363.77;105281;1256;74153;-71
2023/04/15 04:48:18;;;;;;;;;;;;;;;;;;;;;
2023/04/15 04:51:59;;;;;;;;;;;;;;;;;;;;;
2023/04/15 04:55:36;;;;;;;11.80;8.30;;;;;;;9.57;100.00;99373.05;105509;1257;69274;-76
2023/04/15 04:58:42;;;;;;;12.30;8.20;;;;;;;9.59;100.00;99373.13;105479;1253;69682;-75
2023/04/15 05:02:08;;;;;;;9.00;7.40;;;;;;;9.63;100.00;99375.77;105357;1253;74164;-71
2023/04/15 05:05:41;;;;;;;11.10;7.60;;;;;;;9.61;100.00;99379.48;105395;1257;83269;-72
2023/04/15 05:09:05;;;;;;;11.40;8.20;;;;;;;9.62;100.00;99381.02;105382;1253;73821;-73
2023/04/15 05:12:39;;;;;;;;;;;;;;;;;;;;;
2023/04/15 05:15:46;;;;;;;;;;;;;;;;;;;;;
2023/04/15 05:18:36;;;;;;;10.00;7.40;;;;;;;9.66;100.00;99386.74;105328;1255;73600;-72
2023/04/15 05:21:41;;;;;;;;;;;;;;;;;;;;;
2023/04/15 05:24:35;;;;;;;9.90;7.80;;;;;;;9.72;100.00;99387.16;105300;1254;74336;-72
2023/04/15 05:27:26;;;;;;;11.30;8.10;;;;;;;9.74;100.00;99387.06;105434;1257;69203;-74
2023/04/15 05:30:37;;;;;;;9.30;7.70;;;;;;;9.78;100.00;99391.55;105327;1258;69238;-63
2023/04/15 05:33:23;;;;;;;9.70;7.50;;;;;;;9.81;100.00;99390.89;105351;1254;74191;-68
2023/04/15 05:36:18;;;;;;;11.60;7.90;;;;;;;9.88;100.00;99391.61;105516;1254;83503;-69
2023/04/15 05:39:26;;;;;;;10.60;7.60;;;;;;;9.92;100.00;99387.91;105377;1254;73574;-71
2023/04/15 05:42:11;;;;;;;9.20;7.50;;;;;;;9.98;100.00;99384.94;105316;1257;69200;-67
2023/04/15 05:44:51;;;;;;;10.30;7.80;;;;;;;10.03;100.00;99388.54;105372;1254;69015;-67
2023/04/15 05:47:37;;;;;;;;;;;;;;;10.04;100.00;99390.40;105316;1257;72877;-68
2023/04/15 05:50:35;;;;;;;11.20;7.70;;;;;;;10.05;100.00;99398.59;105323;1255;82502;-71
2023/04/15 05:53:46;;;;;;;12.00;8.40;;;;;;;10.05;100.00;99409.04;105422;1254;73891;-67
2023/04/15 05:56:26;;;;;;;12.00;8.00;;;;;;;10.04;99.91;99416.77;105385;1254;69164;-67
2023/04/15 05:59:31;;;;;;;;;;;;;;;;;;;;;
2023/04/15 06:02:15;;;;;;;11.90;8.90;;;;;;;9.99;99.67;99428.38;105144;1259;73222;-67
2023/04/15 06:04:59;;;;;;;14.00;9.40;;;;;;;9.98;99.73;99428.80;105348;1254;83408;-67
2023/04/15 06:07:46;;;;;;;11.40;8.30;;;;;;;9.97;99.49;99430.23;105507;1258;73915;-67
2023/04/15 06:10:37;;;;;;;;;;;;;;;;;;;;;
2023/04/15 06:13:41;;;;;;;;;;;;;;;;;;;;;
2023/04/15 06:16:27;;;;;;;;;;;;;;;;;;;;;
2023/04/15 06:19:11;;;;;;;13.60;8.80;;;;;;;9.90;99.03;99455.52;105483;1257;83489;-68
2023/04/15 06:21:48;;;;;;;13.00;9.00;;;;;;;9.88;98.97;99463.46;105601;1254;73858;-67
2023/04/15 06:24:30;;;;;;;13.90;8.40;;;;;;;9.89;98.92;99459.75;105607;1258;69176;-67
2023/04/15 06:27:23;;;;;;;;;;;;;;;;;;;;;
2023/04/15 06:30:14;;;;;;;;;;;;;;;;;;;;;
2023/04/15 06:33:04;;;;;;;;;;;;;;;;;;;;;
2023/04/15 06:35:48;;;;;;;10.40;7.40;;;;;;;10.01;98.42;99469.79;105253;1257;72866;-68
2023/04/15 06:38:42;;;;;;;9.20;7.00;;;;;;;10.04;98.20;99473.86;105371;1257;69411;-67
2023/04/15 06:41:33;;;;;;;10.20;7.50;;;;;;;10.07;98.24;99473.18;105407;1257;69134;-66
2023/04/15 06:44:18;;;;;;;10.60;7.40;;;;;;;10.11;98.03;99474.58;105432;1257;74067;-66
2023/04/15 06:47:03;;;;;;;8.00;7.10;;;;;;;10.12;97.73;99475.02;105385;1257;83508;-67
2023/04/15 06:49:46;;;;;;;7.00;5.80;;;;;;;10.11;97.33;99478.75;105456;1257;73780;-66
2023/04/15 06:52:31;;;;;;;8.00;6.10;;;;;;;10.03;96.69;99482.96;105371;1258;69251;-66
2023/04/15 06:55:32;;;;;;;10.00;5.90;;;;;;;9.96;96.53;99488.89;105393;1256;69091;-65
2023/04/15 06:58:14;;;;;;;9.30;6.60;;;;;;;9.94;96.54;99496.69;105305;1254;74139;-67
2023/04/15 07:01:06;;;;;;;10.00;5.70;;;;;;;9.97;96.71;99498.80;105340;1257;83385;-65
2023/04/15 07:03:40;;;;;;;7.40;5.30;;;;;;;10.00;96.27;99503.88;105661;1256;73995;-65
2023/04/15 07:06:42;;;;;;;;;;;;;;;;;;;;;
2023/04/15 07:09:27;;;;;;;8.60;4.90;;;;;;;10.01;95.86;99506.77;105327;1254;69203;-66
2023/04/15 07:12:25;;;;;;;7.00;5.00;;;;;;;10.04;95.67;99513.98;105371;1256;74162;-66
2023/04/15 07:15:12;;;;;;;7.00;4.80;;;;;;;10.04;95.42;99518.87;105302;1258;83241;-66
2023/04/15 07:18:08;;;;;;;6.10;4.30;;;;;;;10.12;95.37;99523.06;105382;1258;72805;-66
2023/04/15 07:20:59;;;;;;;5.90;4.10;;;;;;;10.17;94.95;99522.46;105592;1257;69106;-65
2023/04/15 07:23:38;;;;;;;5.60;4.00;;;;;;;10.19;94.57;99526.34;105429;1257;69219;-64
2023/04/15 07:26:31;;;;;;;5.30;4.00;;;;;;;10.23;94.21;99533.13;105422;1255;73258;-65
2023/04/15 07:29:10;;;;;;;4.40;3.30;;;;;;;10.31;94.09;99532.59;105534;1258;83669;-65
2023/04/15 07:31:50;;;;;;;3.70;2.90;;;;;;;10.45;94.00;99531.38;105378;1258;72702;-65
2023/04/15 07:34:58;;;;;;;4.40;2.60;;;;;;;10.65;93.70;99536.45;105394;1256;69072;-75
2023/04/15 07:38:02;;;;;;;3.40;2.40;;;;;;;10.82;93.27;99541.55;105519;1254;69350;-71
2023/04/15 07:41:14;;;;;;;2.40;2.00;;;;;;;10.93;92.85;99534.66;105278;1255;74216;-73
2023/04/15 07:44:27;;;;;;;3.30;2.00;;;;;;;11.02;92.28;99534.92;105628;1258;83447;-73
2023/04/15 07:47:32;;;;;;;2.70;1.30;;;;;;;11.07;91.44;99530.27;105196;1254;74076;-73
2023/04/15 07:50:37;;;;;;;;;;;;;;;;;;;;;
2023/04/15 07:53:32;;;;;;;1.20;0.90;;;;;;;11.28;90.01;99534.21;105285;1258;69148;-74
2023/04/15 07:56:38;;;;;;;2.00;0.90;;;;;;;11.44;89.81;99540.70;105229;1254;74195;-74
2023/04/15 07:59:35;;;;;;;1.50;0.90;;;;;;;11.57;88.97;99551.21;105233;1258;83282;-69
2023/04/15 08:02:52;;;;;;;2.00;1.00;;;;;;;11.67;88.69;99552.91;105249;1258;73869;-70
2023/04/15 08:06:03;;;;;;;1.80;0.80;;;;;;;11.77;87.61;99557.09;105141;1254;69217;-71
2023/04/15 08:09:12;;;;;;;;;;;;;;;;;;;;;
2023/04/15 08:12:14;;;;;;;0.70;0.60;;;;;;;11.87;85.91;99561.66;105259;1255;74197;-71
2023/04/15 08:15:17;;;;;;;0.80;0.50;;;;;;;11.89;85.11;99556.99;105246;1258;83493;-71
2023/04/15 08:18:14;;;;;;;0.70;0.60;;;;;;;11.91;84.57;99563.38;105244;1256;73832;-74
2023/04/15 08:21:12;;;;;;;0.50;0.40;;;;;;;11.99;83.69;99564.12;105221;1258;69124;-72
2023/04/15 08:24:30;;;;;;;5.60;0.60;;;;;;;12.03;82.93;99565.32;105358;1260;69192;-69
2023/04/15 08:27:13;;;;;;;0.30;0.30;;;;;;;12.17;83.08;99566.62;105093;1259;73873;-70
2023/04/15 08:30:20;;;;;;;0.30;0.30;;;;;;;12.31;83.20;99569.49;105140;1256;82681;-71
2023/04/15 08:33:09;;;;;;;0.30;0.20;;;;;;;12.51;82.75;99570.95;105111;1257;73509;-70
2023/04/15 08:36:09;;;;;;;1.20;0.40;;;;;;;12.61;81.78;99562.83;105211;1256;69155;-70
2023/04/15 08:39:00;;;;;;;1.10;0.30;;;;;;;12.65;80.82;99567.84;105240;1258;69670;-74
2023/04/15 08:42:22;;;;;;;1.00;0.40;;;;;;;12.56;79.91;99575.07;105316;1258;73180;-72
2023/04/15 08:45:10;;;;;;;0.40;0.20;;;;;;;12.45;79.21;99575.52;105156;1255;83519;-74
2023/04/15 08:48:17;;;;;;;1.10;0.50;;;;;;;12.49;78.89;99583.14;105192;1256;73879;-70
2023/04/15 08:51:17;;;;;;;;;;;;;;;;;;;;;
2023/04/15 08:54:18;;;;;;;0.50;0.30;;;;;;;12.67;78.98;99585.45;105281;1258;69486;-70
2023/04/15 08:57:02;;;;;;;0.40;0.30;;;;;;;12.82;79.01;99590.36;105141;1258;73214;-78
2023/04/15 08:59:45;;;;;;;0.40;0.40;;;;;;;12.99;78.80;99587.05;105139;1258;83426;-75
2023/04/15 09:02:28;;;;;;;;;;;;;;;13.13;78.24;99593.08;105180;1256;73974;-72
2023/04/15 09:05:20;;;;;;;1.50;0.60;;;;;;;13.10;76.94;99591.29;105185;1254;69187;-72
2023/04/15 09:08:18;;;;;;;1.60;0.60;;;;;;;13.09;76.63;99588.04;105101;1261;69303;-75
2023/04/15 09:11:10;;;;;;;1.10;0.40;;;;;;;13.12;76.75;99592.26;105305;1254;74119;-74
2023/04/15 09:13:59;;;;;;;0.60;0.40;;;;;;;13.17;76.31;99599.50;105192;1258;83676;-71
2023/04/15 09:17:01;;;;;;;0.50;0.40;;;;;;;13.20;75.71;99602.85;105202;1256;73920;-75
2023/04/15 09:19:47;;;;;;;0.80;0.40;;;;;;;13.13;74.53;99608.48;105189;1258;69332;-71
2023/04/15 09:22:39;;;;;;;0.40;0.30;;;;;;;13.02;74.35;99609.90;105174;1255;69274;-74
2023/04/15 09:26:05;;;;;;;1.00;0.50;;;;;;;12.96;74.06;99611.43;105429;1255;72614;-74
2023/04/15 09:28:46;;;;;;;0.50;0.40;;;;;;;12.91;74.02;99610.89;105421;1257;83130;-73
2023/04/15 09:31:39;;;;;;;0.50;0.40;;;;;;;12.85;74.04;99611.23;105207;1255;72679;-74
2023/04/15 09:34:55;;;;;;;0.60;0.50;;;;;;;12.93;74.60;99616.20;105212;1256;69228;-71
2023/04/15 09:37:49;;;;;;;1.10;0.60;;;;;;;13.07;74.71;99615.55;105403;1256;69303;-72
2023/04/15 09:41:06;;;;;;;;;;;;;;;;;;;;;
2023/04/15 09:44:06;;;;;;;1.10;0.70;;;;;;;13.09;72.95;99627.31;104810;1264;83314;-73
2023/04/15 09:47:03;;;;;;;1.30;0.70;;;;;;;12.95;72.59;99626.59;104802;1261;72613;-75
2023/04/15 09:49:57;;;;;;;1.90;0.80;;;;;;;12.90;72.62;99630.04;104708;1261;69153;-70
2023/04/15 09:52:51;;;;;;;1.80;0.80;;;;;;;12.93;72.52;99637.23;104796;1264;69310;-71
2023/04/15 09:55:46;;;;;;;1.90;1.00;;;;;;;12.96;72.22;99638.63;104824;1262;74136;-74
2023/04/15 09:59:00;;;;;;;;;;;;;;;;;;;;;
2023/04/15 10:02:04;;;;;;;1.00;0.80;;;;;;;12.98;71.93;99636.05;104893;1262;73841;-71
2023/04/15 10:04:47;;;;;;;1.10;0.80;;;;;;;12.93;71.56;99638.29;104834;1264;69342;-71
2023/04/15 10:07:40;;;;;;;1.90;1.30;;;;;;;12.91;71.28;99641.05;104828;1264;69217;-72
2023/04/15 10:10:31;;;;;;;2.60;0.90;;;;;;;12.86;70.81;99647.09;105010;1262;74687;-71
2023/04/15 10:13:35;;;;;;;1.80;1.20;;;;;;;12.85;71.07;99649.60;104803;1264;83430;-71
2023/04/15 10:16:29;;;;;;;0.60;0.50;;;;;;;12.84;71.08;99653.02;104725;1264;74109;-75
2023/04/15 10:19:23;;;;;;;0.50;0.50;;;;;;;12.80;70.79;99657.43;105092;1260;69593;-71
2023/04/15 10:22:13;;;;;;;0.70;0.50;;;;;;;12.78;70.59;99658.27;105173;1256;69143;-70
2023/04/15 10:25:15;;;;;;;1.50;0.90;;;;;;;12.78;70.36;99663.52;105200;1258;74130;-73
2023/04/15 10:28:09;;;;;;;2.50;1.00;;;;;;;12.78;69.99;99663.52;105121;1261;83913;-76
2023/04/15 10:31:13;;;;;;;1.00;0.50;;;;;;;12.77;69.61;99667.25;105273;1256;73868;-73
2023/04/15 10:34:05;;;;;;;0.70;0.50;;;;;;;12.83;69.49;99669.88;105216;1258;69256;-71
2023/04/15 10:36:53;;;;;;;;;;;;;;;;;;;;;
2023/04/15 10:39:43;;;;;;;0.50;0.50;;;;;;;13.13;69.86;99666.21;105157;1258;74564;-75
2023/04/15 10:42:35;;;;;;;2.10;1.20;;;;;;;13.37;70.23;99663.73;105191;1258;83488;-71
2023/04/15 10:45:36;;;;;;;2.20;0.80;;;;;;;13.62;69.47;99659.76;105183;1258;72802;-73
2023/04/15 10:48:10;;;;;;;1.90;0.60;;;;;;;13.88;69.85;99652.56;105195;1254;69190;-73
2023/04/15 10:50:55;;;;;;;0.60;0.50;;;;;;;14.30;70.13;99651.13;105221;1261;69150;-74
2023/04/15 10:53:32;;;;;;;1.10;0.60;;;;;;;14.86;69.57;99657.15;105281;1256;73047;-72
2023/04/15 10:56:04;;;;;;;1.50;0.70;;;;;;;15.39;69.43;99652.13;105365;1258;83441;-70
2023/04/15 10:58:45;;;;;;;1.20;0.70;;;;;;;15.96;69.68;99655.08;105172;1256;72939;-68
2023/04/15 11:01:17;;;;;;;0.50;0.50;;;;;;;16.22;68.06;99658.32;105114;1258;69136;-69
2023/04/15 11:03:48;;;;;;;1.00;0.80;;;;;;;16.24;66.99;99655.91;105168;1258;69257;-69
2023/04/15 11:06:44;;;;;;;2.50;0.60;;;;;;;16.08;66.58;99656.00;105210;1258;73503;-74
2023/04/15 11:09:33;;;;;;;0.80;0.60;;;;;;;16.17;66.09;99654.30;105178;1258;83316;-74
2023/04/15 11:12:10;;;;;;;0.70;0.70;;;;;;;16.56;66.50;99656.16;105140;1255;72692;-58
2023/04/15 11:14:42;;;;;;;0.80;0.60;;;;;;;16.61;65.36;99663.73;105147;1255;69112;-72
2023/04/15 11:17:13;;;;;;;1.50;0.60;;;;;;;16.60;65.16;99663.14;105240;1256;69209;-69
2023/04/15 11:19:43;;;;;;;1.20;0.50;;;;;;;16.63;64.74;99670.64;105163;1260;74723;-70
2023/04/15 11:22:14;;;;;;;1.50;0.50;;;;;;;16.55;64.23;99666.69;105437;1258;83481;-69
2023/04/15 11:24:52;;;;;;;0.70;0.60;;;;;;;16.40;64.08;99665.98;105505;1256;72683;-70
2023/04/15 11:27:31;;;;;;;0.40;0.40;;;;;;;16.31;64.24;99676.16;105372;1258;69107;-68
2023/04/15 11:30:18;;;;;;;0.80;0.40;;;;;;;16.26;63.89;99676.00;105466;1258;69206;-67
2023/04/15 11:32:47;;;;;;;2.20;0.50;;;;;;;16.30;63.46;99675.40;105384;1258;73131;-70
2023/04/15 11:35:21;;;;;;;0.80;0.50;;;;;;;16.40;63.39;99675.19;105396;1256;83594;-67
2023/04/15 11:37:50;;;;;;;1.30;0.50;;;;;;;16.53;63.21;99674.54;105363;1254;73722;-69
2023/04/15 11:40:27;;;;;;;0.40;0.40;;;;;;;16.64;63.03;99677.96;105509;1254;69173;-70
2023/04/15 11:43:17;;;;;;;0.30;0.30;;;;;;;16.65;62.75;99676.36;105537;1256;69273;-67
2023/04/15 11:45:58;;;;;;;1.10;0.30;;;;;;;16.50;61.87;99686.44;105679;1254;74266;-67
2023/04/15 11:48:31;;;;;;;0.50;0.30;;;;;;;16.30;61.51;99687.39;105465;1256;83385;-70
2023/04/15 11:51:08;;;;;;;0.30;0.30;;;;;;;16.18;61.64;99687.14;105521;1256;73193;-67
2023/04/15 11:53:39;;;;;;;1.10;0.20;;;;;;;16.06;61.30;99687.13;105487;1254;69173;-70
2023/04/15 11:56:17;;;;;;;0.90;0.30;;;;;;;15.89;61.46;99693.42;105603;1254;69210;-67
2023/04/15 11:58:57;;;;;;;0.60;0.40;;;;;;;15.74;61.95;99697.18;105385;1257;73629;-70
2023/04/15 12:01:38;;;;;;;1.30;0.50;;;;;;;15.63;62.25;99702.60;105342;1256;83667;-71
2023/04/15 12:04:20;;;;;;;1.10;0.50;;;;;;;15.51;62.20;99704.31;105282;1256;74222;-68
2023/04/15 12:07:06;;;;;;;0.40;0.40;;;;;;;15.41;62.05;99708.02;105200;1256;69191;-67
2023/04/15 12:09:38;;;;;;;0.70;0.50;;;;;;;15.26;61.91;99712.36;105194;1256;69090;-69
2023/04/15 12:12:13;;;;;;;1.10;0.50;;;;;;;15.11;61.90;99711.26;105422;1256;74199;-69
2023/04/15 12:14:53;;;;;;;0.50;0.40;;;;;;;15.09;62.02;99713.53;105514;1258;83301;-69
2023/04/15 12:17:30;;;;;;;1.10;0.40;;;;;;;15.11;62.16;99714.27;105386;1255;73857;-68
2023/04/15 12:20:25;;;;;;;0.70;0.40;;;;;;;15.11;62.17;99719.34;105349;1256;69086;-66
2023/04/15 12:23:09;;;;;;;0.90;0.40;;;;;;;15.08;62.06;99719.35;105395;1258;69168;-70
2023/04/15 12:25:51;;;;;;;1.30;0.40;;;;;;;15.10;62.12;99722.92;105457;1257;74305;-68
2023/04/15 12:28:29;;;;;;;0.10;0.10;;;;;;;15.08;62.39;99725.51;105442;1258;83552;-72
2023/04/15 12:31:08;;;;;;;0.30;0.20;;;;;;;15.12;62.17;99727.02;105371;1256;72784;-69
2023/04/15 12:33:43;;;;;;;0.20;0.10;;;;;;;15.12;61.79;99725.09;105430;1257;69162;-70
2023/04/15 12:36:17;;;;;;;0.30;0.20;;;;;;;15.09;61.70;99723.19;105150;1261;69194;-69
2023/04/15 12:38:59;;;;;;;;;;;;;;;;;;;;;
2023/04/15 12:41:37;;;;;;;1.50;0.20;;;;;;;14.97;61.66;99730.52;105235;1256;83437;-71
2023/04/15 12:44:08;;;;;;;0.40;0.20;;;;;;;14.96;61.91;99730.19;105214;1256;73805;-69
2023/04/15 12:46:42;;;;;;;0.70;0.40;;;;;;;14.97;61.75;99734.05;105178;1256;69239;-68
2023/04/15 12:49:19;;;;;;;0.20;0.20;;;;;;;14.89;60.71;99733.64;105371;1256;69161;-67
2023/04/15 12:51:54;;;;;;;0.40;0.20;;;;;;;14.76;60.18;99738.52;105243;1259;74036;-66
2023/04/15 12:54:29;;;;;;;0.30;0.30;;;;;;;14.71;60.39;99738.65;105193;1258;83732;-67
2023/04/15 12:57:12;;;;;;;0.50;0.40;;;;;;;14.72;60.36;99737.41;105220;1259;73948;-69
2023/04/15 12:59:47;;;;;;;0.80;0.60;;;;;;;14.68;60.24;99741.86;105184;1260;69117;-66
2023/04/15 13:02:29;;;;;;;0.30;0.30;;;;;;;14.63;60.37;99747.30;105321;1258;69182;-65
2023/04/15 13:05:23;;;;;;;;;;;;;;;14.58;60.10;99747.27;105225;1255;73881;-67
2023/04/15 13:08:11;;;;;;;0.30;0.30;;;;;;;14.48;59.93;99750.65;105193;1254;83920;-67
2023/04/15 13:10:48;;;;;;;1.50;0.30;;;;;;;14.36;59.80;99751.79;105115;1258;73117;-70
2023/04/15 13:13:27;;;;;;;0.40;0.30;;;;;;;14.27;59.83;99754.47;105131;1258;69184;-65
2023/04/15 13:16:03;;;;;;;0.90;0.60;;;;;;;14.25;60.04;99759.31;105191;1258;69197;-65
2023/04/15 13:18:41;;;;;;;0.90;0.60;;;;;;;14.20;60.04;99763.35;105263;1256;74202;-65
2023/04/15 13:21:14;;;;;;;1.20;0.80;;;;;;;14.17;59.99;99763.39;105162;1258;83973;-66
2023/04/15 13:23:52;;;;;;;0.90;0.40;;;;;;;14.13;59.82;99771.85;105120;1258;71807;-65
2023/04/15 13:26:31;;;;;;;1.10;0.70;;;;;;;14.08;59.80;99771.46;105188;1255;69117;-66
2023/04/15 13:29:11;;;;;;;3.40;0.90;;;;;;;14.02;59.66;99772.55;105202;1258;69104;-65
2023/04/15 13:31:49;;;;;;;2.00;1.10;;;;;;;14.02;59.74;99770.76;105230;1258;74333;-66
2023/04/15 13:34:26;;;;;;;3.30;1.40;;;;;;;14.05;59.78;99775.67;105216;1258;83350;-65
2023/04/15 13:37:09;;;;;;;1.40;0.90;;;;;;;14.03;59.48;99776.49;105212;1258;73897;-68
2023/04/15 13:39:53;;;;;;;0.60;0.50;;;;;;;13.97;59.24;99780.91;105192;1256;69099;-65
2023/04/15 13:42:32;;;;;;;3.10;1.70;;;;;;;13.97;59.36;99783.40;105160;1258;69203;-69
2023/04/15 13:45:09;;;;;;;1.90;0.80;;;;;;;13.93;59.00;99785.75;105175;1256;73044;-65
2023/04/15 13:47:41;;;;;;;6.80;2.30;;;;;;;13.90;59.26;99785.73;101313;1257;5402427;-64
2023/04/15 13:50:16;;;;;;;6.90;3.00;;;;;;;13.93;59.52;99788.20;105234;1254;72480;-66
2023/04/15 13:53:04;;;;;;;5.80;2.40;;;;;;;13.95;59.34;99789.11;105214;1258;69204;-65
2023/04/15 13:55:41;;;;;;;4.80;2.20;;;;;;;13.87;59.05;99793.62;105248;1260;69237;-66
2023/04/15 13:58:29;;;;;;;3.80;1.40;;;;;;;13.90;59.01;99796.47;105169;1258;73485;-65
2023/04/15 14:01:03;;;;;;;3.50;1.80;;;;;;;13.88;58.93;99798.70;105229;1256;82603;-65
2023/04/15 14:03:39;;;;;;;4.20;2.80;;;;;;;13.92;59.05;99794.61;105247;1258;72827;-68
2023/04/15 14:06:21;;;;;;;1.90;1.70;;;;;;;14.01;59.20;99796.66;105220;1258;69214;-67
2023/04/15 14:08:58;;;;;;;2.60;1.40;;;;;;;14.05;58.96;99795.14;105272;1256;69092;-66
2023/04/15 14:11:40;;;;;;;0.80;0.50;;;;;;;14.12;58.80;99801.64;105204;1257;73979;-68
2023/04/15 14:14:26;;;;;;;1.50;0.90;;;;;;;14.12;58.64;99805.33;105247;1260;83570;-67
2023/04/15 14:17:13;;;;;;;1.00;0.70;;;;;;;14.14;58.62;99807.45;105213;1255;72690;-65
2023/04/15 14:19:52;;;;;;;0.90;0.60;;;;;;;14.19;58.22;99806.98;105250;1258;69419;-65
2023/04/15 14:22:30;;;;;;;11.00;6.50;;;;;;;14.20;58.24;99806.94;105229;1258;69197;-65
2023/04/15 14:25:05;;;;;;;8.80;5.40;;;;;;;14.30;58.52;99810.67;105182;1256;74550;-65
2023/04/15 14:27:42;;;;;;;2.50;1.30;;;;;;;14.45;58.55;99813.59;105335;1259;83481;-66
2023/04/15 14:30:14;;;;;;;15.30;8.80;;;;;;;14.60;58.71;99809.19;105107;1257;73766;-65
2023/04/15 14:32:54;;;;;;;2.40;1.90;;;;;;;14.80;58.66;99814.63;105188;1257;69048;-64
2023/04/15 14:35:26;;;;;;;1.20;0.70;;;;;;;15.00;58.25;99814.80;105227;1261;69105;-68
2023/04/15 14:38:04;;;;;;;0.70;0.50;;;;;;;15.11;57.85;99816.16;105244;1258;73048;-68
2023/04/15 14:40:36;;;;;;;0.90;0.70;;;;;;;15.21;57.72;99815.83;105337;1256;82597;-66
2023/04/15 14:43:09;;;;;;;0.60;0.50;;;;;;;15.26;56.98;99814.83;105207;1255;72823;-65
2023/04/15 14:45:41;;;;;;;3.80;1.50;;;;;;;15.24;56.61;99819.14;105189;1261;69544;-66
2023/04/15 14:48:21;;;;;;;2.30;1.20;;;;;;;15.28;57.03;99819.10;105202;1258;69441;-68
2023/04/15 14:50:49;;;;;;;2.30;1.30;;;;;;;15.42;56.52;99819.77;105239;1256;74321;-66
2023/04/15 14:53:24;;;;;;;1.40;0.80;;;;;;;15.55;56.41;99825.03;105245;1262;82564;-67
2023/04/15 14:56:01;;;;;;;1.40;0.70;;;;;;;15.80;56.22;99827.41;105424;1260;73745;-68
2023/04/15 14:58:32;;;;;;;1.40;0.70;;;;;;;16.09;55.93;99830.40;105165;1259;69196;-68
2023/04/15 15:01:02;;;;;;;0.60;0.40;;;;;;;16.25;55.46;99829.95;105263;1268;69309;-70
2023/04/15 15:03:31;;;;;;;0.50;0.30;;;;;;;16.41;55.28;99830.60;105292;1256;74065;-67
2023/04/15 15:06:03;;;;;;;1.00;0.60;;;;;;;16.62;55.16;99829.36;105176;1259;83939;-69
2023/04/15 15:08:37;;;;;;;0.60;0.40;;;;;;;16.70;54.66;99833.28;105071;1256;74343;-70
2023/04/15 15:11:08;;;;;;;2.20;1.00;;;;;;;16.71;54.14;99838.90;105251;1254;69137;-67
2023/04/15 15:13:37;;;;;;;1.20;0.90;;;;;;;16.58;53.86;99841.08;105164;1260;69184;-64